createdAt,value
2023-01-19T00:00:20.514Z,72.44
2023-01-19T00:02:46.936Z,72.48
2023-01-19T00:05:14.361Z,72.21
2023-01-19T00:07:40.852Z,71.64
2023-01-19T00:10:08.939Z,72.29
2023-01-19T00:12:35.428Z,70.68
2023-01-19T00:15:01.902Z,72.63
2023-01-19T00:17:29.603Z,72.30
2023-01-19T00:19:55.981Z,71.52
2023-01-19T00:22:22.337Z,70.01
2023-01-19T00:24:48.749Z,73.17
2023-01-19T00:27:15.099Z,72.89
2023-01-19T00:29:41.468Z,72.63
2023-01-19T00:32:07.944Z,71.92
2023-01-19T00:34:35.610Z,72.13
2023-01-19T00:37:02.043Z,72.83
2023-01-19T00:39:28.490Z,72.34
2023-01-19T00:41:54.891Z,71.94
2023-01-19T00:44:21.239Z,70.92
2023-01-19T00:46:47.606Z,72.06
2023-01-19T00:49:13.957Z,71.76
2023-01-19T00:51:41.708Z,72.36
2023-01-19T00:54:08.103Z,74.43
2023-01-19T00:56:34.451Z,72.28
2023-01-19T00:59:00.824Z,72.65
2023-01-19T01:01:45.429Z,74.14
2023-01-19T01:04:12.801Z,70.79
2023-01-19T01:06:39.160Z,70.13
2023-01-19T01:09:06.917Z,70.62
2023-01-19T01:11:33.256Z,70.50
2023-01-19T01:13:59.620Z,69.61
2023-01-19T01:16:26.154Z,70.47
2023-01-19T01:18:52.513Z,72.88
2023-01-19T01:21:18.890Z,71.36
2023-01-19T01:23:45.905Z,72.40
2023-01-19T01:26:13.597Z,73.00
2023-01-19T01:28:40.071Z,71.17
2023-01-19T01:31:06.424Z,71.73
2023-01-19T01:33:40.939Z,72.49
2023-01-19T01:36:09.020Z,73.15
2023-01-19T01:38:35.394Z,74.52
2023-01-19T01:41:01.772Z,73.37
2023-01-19T01:43:42.660Z,73.04
2023-01-19T01:46:09.210Z,73.41
2023-01-19T01:48:38.015Z,71.80
2023-01-19T01:51:10.120Z,70.53
2023-01-19T01:53:37.552Z,73.04
2023-01-19T01:56:09.531Z,73.07
2023-01-19T01:58:40.315Z,72.33
2023-01-19T02:01:07.635Z,72.21
2023-01-19T02:03:34.071Z,71.64
2023-01-19T02:06:04.196Z,72.71
2023-01-19T02:08:35.164Z,72.92
2023-01-19T02:11:02.340Z,71.97
2023-01-19T02:13:30.578Z,73.00
2023-01-19T02:16:01.913Z,73.37
2023-01-19T02:18:30.895Z,72.89
2023-01-19T02:21:06.634Z,72.72
2023-01-19T02:23:39.423Z,71.62
2023-01-19T02:26:08.704Z,72.80
2023-01-19T02:28:36.446Z,72.35
2023-01-19T02:31:03.147Z,73.22
2023-01-19T02:33:29.597Z,71.95
2023-01-19T02:35:56.698Z,72.92
2023-01-19T02:38:25.845Z,72.38
2023-01-19T02:40:55.492Z,73.74
2023-01-19T02:43:23.709Z,72.32
2023-01-19T02:45:50.165Z,71.59
2023-01-19T02:48:18.333Z,71.63
2023-01-19T02:50:46.636Z,72.79
2023-01-19T02:53:27.458Z,73.87
2023-01-19T02:56:03.271Z,74.24
2023-01-19T02:58:34.143Z,73.44
2023-01-19T03:01:10.398Z,73.60
2023-01-19T03:03:47.222Z,73.04
2023-01-19T03:06:24.089Z,73.15
2023-01-19T03:08:55.865Z,72.59
2023-01-19T03:11:27.319Z,72.41
2023-01-19T03:13:57.376Z,72.50
2023-01-19T03:16:29.734Z,72.43
2023-01-19T03:19:02.852Z,72.10
2023-01-19T03:21:30.736Z,73.77
2023-01-19T03:24:01.939Z,73.81
2023-01-19T03:26:33.836Z,73.80
2023-01-19T03:29:02.399Z,73.64
2023-01-19T03:31:32.043Z,71.85
2023-01-19T03:34:04.068Z,72.49
2023-01-19T03:36:34.708Z,71.68
2023-01-19T03:39:03.383Z,71.88
2023-01-19T03:41:33.240Z,72.63
2023-01-19T03:44:00.931Z,73.06
2023-01-19T03:46:28.278Z,71.87
2023-01-19T03:48:54.946Z,72.95
2023-01-19T03:51:22.072Z,72.44
2023-01-19T03:53:48.514Z,71.78
2023-01-19T03:56:18.435Z,72.06
2023-01-19T03:58:46.269Z,71.33
2023-01-19T04:01:13.795Z,71.73
2023-01-19T04:03:40.237Z,70.71
2023-01-19T04:06:07.056Z,70.69
2023-01-19T04:08:33.509Z,70.95
2023-01-19T04:10:59.915Z,69.96
2023-01-19T04:13:26.427Z,71.11
2023-01-19T04:15:54.369Z,69.85
2023-01-19T04:18:20.728Z,71.20
2023-01-19T04:20:47.064Z,70.50
2023-01-19T04:23:13.445Z,71.58
2023-01-19T04:25:39.797Z,72.41
2023-01-19T04:28:06.218Z,71.24
2023-01-19T04:30:32.594Z,70.80
2023-01-19T04:33:00.612Z,72.04
2023-01-19T04:35:27.145Z,71.72
2023-01-19T04:37:53.745Z,71.79
2023-01-19T04:40:20.512Z,72.89
2023-01-19T04:42:46.945Z,73.68
2023-01-19T04:45:13.911Z,72.48
2023-01-19T04:47:40.528Z,73.62
2023-01-19T04:50:09.608Z,73.87
2023-01-19T04:52:36.389Z,73.39
2023-01-19T04:55:03.321Z,72.13
2023-01-19T04:57:30.022Z,72.06
2023-01-19T04:59:56.724Z,74.03
2023-01-19T05:02:23.388Z,73.01
2023-01-19T05:04:50.085Z,73.57
2023-01-19T05:07:17.859Z,72.95
2023-01-19T05:09:44.283Z,72.35
2023-01-19T05:12:10.620Z,72.80
2023-01-19T05:14:37.323Z,73.92
2023-01-19T05:17:03.694Z,73.11
2023-01-19T05:19:30.067Z,72.13
2023-01-19T05:21:56.447Z,71.97
2023-01-19T05:24:24.139Z,72.48
2023-01-19T05:26:50.496Z,72.90
2023-01-19T05:29:17.119Z,73.02
2023-01-19T05:31:43.614Z,72.66
2023-01-19T05:34:11.101Z,71.53
2023-01-19T05:36:37.513Z,70.65
2023-01-19T05:39:03.909Z,72.14
2023-01-19T05:41:31.584Z,72.18
2023-01-19T05:43:58.189Z,72.39
2023-01-19T05:46:24.604Z,72.99
2023-01-19T05:48:51.111Z,72.37
2023-01-19T05:51:17.461Z,72.29
2023-01-19T05:53:43.889Z,70.65
2023-01-19T05:56:11.236Z,72.08
2023-01-19T05:58:39.069Z,71.91
2023-01-19T06:01:07.118Z,71.54
2023-01-19T06:03:34.948Z,71.53
2023-01-19T06:06:02.529Z,71.38
2023-01-19T06:08:29.328Z,70.88
2023-01-19T06:10:57.282Z,72.99
2023-01-19T06:13:23.673Z,71.44
2023-01-19T06:15:58.114Z,71.94
2023-01-19T06:18:25.096Z,71.00
2023-01-19T06:20:54.190Z,72.25
2023-01-19T06:23:20.617Z,69.93
2023-01-19T06:25:48.952Z,70.70
2023-01-19T06:28:15.317Z,70.54
2023-01-19T06:30:47.687Z,71.39
2023-01-19T06:33:15.581Z,71.24
2023-01-19T06:35:42.918Z,71.30
2023-01-19T06:38:09.371Z,71.09
2023-01-19T06:40:35.740Z,72.89
2023-01-19T06:43:02.559Z,71.41
2023-01-19T06:45:29.171Z,71.18
2023-01-19T06:47:55.778Z,70.54
2023-01-19T06:50:23.463Z,71.26
2023-01-19T06:52:49.936Z,68.76
2023-01-19T06:55:16.663Z,70.15
2023-01-19T06:57:43.104Z,69.07
2023-01-19T07:00:11.024Z,69.89
2023-01-19T07:02:37.928Z,69.18
2023-01-19T07:05:04.958Z,69.56
2023-01-19T07:07:32.832Z,70.07
2023-01-19T07:09:59.209Z,70.50
2023-01-19T07:12:25.589Z,70.17
2023-01-19T07:14:54.689Z,70.04
2023-01-19T07:17:21.070Z,68.82
2023-01-19T07:19:47.446Z,69.14
2023-01-19T07:22:14.053Z,69.23
2023-01-19T07:24:41.790Z,69.11
2023-01-19T07:27:08.236Z,69.63
2023-01-19T07:29:34.607Z,71.34
2023-01-19T07:32:01.000Z,69.69
2023-01-19T07:34:27.455Z,68.59
2023-01-19T07:36:55.468Z,69.87
2023-01-19T07:39:24.785Z,71.08
2023-01-19T07:41:52.484Z,70.50
2023-01-19T07:44:18.853Z,70.83
2023-01-19T07:46:45.226Z,69.45
2023-01-19T07:49:11.624Z,68.98
2023-01-19T07:51:38.008Z,68.86
2023-01-19T07:54:04.565Z,68.54
2023-01-19T07:56:32.764Z,70.52
2023-01-19T07:59:01.343Z,69.37
2023-01-19T08:01:27.875Z,67.13
2023-01-19T08:03:54.320Z,68.51
2023-01-19T08:06:22.750Z,67.98
2023-01-19T08:08:49.834Z,66.95
2023-01-19T08:11:16.640Z,62.96
2023-01-19T08:13:43.122Z,66.60
2023-01-19T08:16:10.947Z,67.17
2023-01-19T08:18:37.417Z,63.77
2023-01-19T08:21:04.142Z,67.05
2023-01-19T08:23:30.550Z,65.03
2023-01-19T08:25:57.183Z,63.49
2023-01-19T08:28:23.754Z,63.20
2023-01-19T08:30:50.287Z,66.88
2023-01-19T08:33:18.041Z,65.81
2023-01-19T08:35:48.433Z,66.05
2023-01-19T08:38:15.344Z,67.75
2023-01-19T08:40:42.160Z,67.54
2023-01-19T08:43:10.815Z,68.16
2023-01-19T08:45:39.557Z,67.87
2023-01-19T08:48:06.200Z,66.90
2023-01-19T08:50:34.432Z,67.98
2023-01-19T08:53:03.784Z,68.64
2023-01-19T08:55:32.810Z,68.25
2023-01-19T08:57:59.752Z,68.47
2023-01-19T09:00:26.944Z,66.99
2023-01-19T09:02:53.892Z,68.95
2023-01-19T09:05:20.386Z,69.20
2023-01-19T09:07:48.177Z,69.89
2023-01-19T09:10:15.526Z,69.52
2023-01-19T09:12:42.203Z,70.21
2023-01-19T09:15:09.588Z,70.63
2023-01-19T09:17:36.463Z,70.53
2023-01-19T09:20:03.072Z,72.92
2023-01-19T09:22:29.477Z,74.77
2023-01-19T09:24:57.214Z,75.76
2023-01-19T09:27:23.758Z,74.75
2023-01-19T09:29:50.221Z,76.67
2023-01-19T09:32:16.626Z,76.26
2023-01-19T09:34:42.988Z,73.45
2023-01-19T09:37:09.434Z,74.99
2023-01-19T09:39:36.251Z,76.30
2023-01-19T09:42:13.719Z,77.53
2023-01-19T09:44:43.424Z,78.66
2023-01-19T09:47:14.234Z,75.63
2023-01-19T09:49:43.999Z,74.40
2023-01-19T09:52:13.151Z,74.81
2023-01-19T09:54:46.965Z,76.58
2023-01-19T09:57:14.636Z,76.87
2023-01-19T09:59:41.918Z,79.45
2023-01-19T10:02:34.350Z,80.68
2023-01-19T10:05:02.692Z,80.14
2023-01-19T10:07:54.143Z,78.57
2023-01-19T10:10:22.794Z,79.27
2023-01-19T10:13:02.893Z,80.74
2023-01-19T10:15:39.315Z,80.30
2023-01-19T10:18:13.505Z,79.65
2023-01-19T10:20:43.678Z,83.35
2023-01-19T10:23:24.897Z,81.85
2023-01-19T10:25:52.063Z,82.80
2023-01-19T10:28:25.289Z,82.84
2023-01-19T10:30:54.088Z,84.76
2023-01-19T10:33:20.604Z,84.75
2023-01-19T10:35:47.018Z,85.69
2023-01-19T10:38:16.554Z,85.76
2023-01-19T10:40:48.996Z,84.79
2023-01-19T10:43:35.819Z,85.08
2023-01-19T10:46:05.871Z,85.52
2023-01-19T10:48:38.737Z,81.02
2023-01-19T10:51:06.258Z,80.36
2023-01-19T10:53:32.880Z,83.28
2023-01-19T10:56:15.530Z,81.58
2023-01-19T10:58:46.093Z,81.04
2023-01-19T11:01:15.481Z,82.37
2023-01-19T11:03:42.080Z,79.63
2023-01-19T11:06:23.571Z,80.15
2023-01-19T11:08:51.532Z,79.78
2023-01-19T11:11:19.440Z,81.27
2023-01-19T11:14:04.499Z,82.70
2023-01-19T11:16:32.025Z,81.45
2023-01-19T11:18:59.116Z,80.95
2023-01-19T11:21:27.735Z,79.26
2023-01-19T11:23:57.485Z,77.65
2023-01-19T11:26:28.757Z,79.15
2023-01-19T11:28:58.448Z,78.29
2023-01-19T11:31:33.265Z,78.23
2023-01-19T11:34:01.637Z,79.52
2023-01-19T11:36:32.549Z,78.18
2023-01-19T11:39:02.266Z,76.76
2023-01-19T11:41:32.523Z,79.39
2023-01-19T11:44:10.184Z,78.34
2023-01-19T11:46:40.926Z,79.81
2023-01-19T11:49:19.830Z,79.58
2023-01-19T11:51:51.844Z,77.94
2023-01-19T11:54:22.836Z,78.81
2023-01-19T11:56:52.215Z,79.93
2023-01-19T11:59:22.272Z,78.18
2023-01-19T12:01:53.295Z,81.86
2023-01-19T12:04:25.692Z,83.63
2023-01-19T12:06:54.967Z,84.54
2023-01-19T12:09:26.918Z,82.71
2023-01-19T12:11:57.081Z,86.43
2023-01-19T12:14:31.739Z,87.09
2023-01-19T12:17:02.913Z,86.26
2023-01-19T12:19:40.978Z,85.16
2023-01-19T12:22:13.239Z,84.06
2023-01-19T12:24:45.401Z,85.20
2023-01-19T12:27:22.319Z,84.04
2023-01-19T12:29:50.529Z,81.71
2023-01-19T12:32:31.769Z,83.37
2023-01-19T12:34:58.235Z,86.07
2023-01-19T12:37:34.154Z,85.03
2023-01-19T12:40:02.904Z,87.45
2023-01-19T12:42:30.234Z,86.51
2023-01-19T12:45:09.235Z,84.73
2023-01-19T12:47:36.780Z,85.30
2023-01-19T12:50:12.999Z,88.42
2023-01-19T12:52:41.439Z,89.98
2023-01-19T12:55:20.903Z,87.52
2023-01-19T12:57:52.785Z,88.92
2023-01-19T13:00:35.361Z,87.98
2023-01-19T13:03:04.308Z,86.83
2023-01-19T13:05:57.925Z,90.14
2023-01-19T13:08:26.833Z,90.36
2023-01-19T13:11:09.415Z,90.42
2023-01-19T13:13:37.574Z,88.88
2023-01-19T13:16:37.418Z,92.71
2023-01-19T13:19:16.757Z,89.40
2023-01-19T13:21:45.154Z,85.91
2023-01-19T13:24:12.974Z,86.39
2023-01-19T13:26:52.034Z,86.20
2023-01-19T13:29:25.284Z,88.58
2023-01-19T13:31:52.231Z,88.91
2023-01-19T13:34:22.882Z,87.67
2023-01-19T13:36:51.829Z,89.58
2023-01-19T13:39:26.322Z,88.14
2023-01-19T13:41:55.689Z,85.62
2023-01-19T13:44:27.281Z,85.53
2023-01-19T13:46:55.196Z,88.87
2023-01-19T13:49:29.168Z,88.02
2023-01-19T13:52:13.077Z,86.44
2023-01-19T13:54:47.937Z,86.64
2023-01-19T13:57:26.007Z,89.97
2023-01-19T14:00:14.782Z,89.42
2023-01-19T14:02:50.207Z,87.73
2023-01-19T14:05:24.533Z,89.31
2023-01-19T14:08:05.690Z,91.00
2023-01-19T14:10:33.222Z,89.23
2023-01-19T14:13:00.701Z,87.61
2023-01-19T14:15:28.017Z,87.71
2023-01-19T14:18:24.527Z,87.89
2023-01-19T14:21:10.984Z,89.50
2023-01-19T14:23:43.866Z,90.51
2023-01-19T14:26:41.449Z,89.16
2023-01-19T14:29:16.514Z,89.47
2023-01-19T14:31:44.123Z,88.52
2023-01-19T14:34:32.423Z,87.20
2023-01-19T14:37:01.287Z,89.04
2023-01-19T14:39:30.210Z,89.09
2023-01-19T14:42:00.608Z,90.38
2023-01-19T14:44:30.632Z,90.46
2023-01-19T14:46:57.953Z,91.58
2023-01-19T14:49:31.130Z,91.26
2023-01-19T14:51:57.668Z,88.35
2023-01-19T14:54:32.541Z,89.91
2023-01-19T14:56:58.924Z,89.53
2023-01-19T14:59:25.385Z,89.56
2023-01-19T15:01:51.950Z,87.86
2023-01-19T15:04:18.484Z,86.71
2023-01-19T15:06:44.960Z,88.11
2023-01-19T15:09:15.136Z,87.94
2023-01-19T15:11:43.987Z,88.00
2023-01-19T15:14:13.197Z,89.77
2023-01-19T15:16:40.247Z,87.80
2023-01-19T15:19:11.157Z,88.25
2023-01-19T15:21:37.799Z,87.61
2023-01-19T15:24:04.776Z,87.43
2023-01-19T15:26:31.192Z,87.71
2023-01-19T15:28:58.983Z,86.92
2023-01-19T15:31:26.207Z,89.04
2023-01-19T15:33:52.752Z,88.80
2023-01-19T15:36:21.396Z,89.24
2023-01-19T15:38:48.363Z,86.54
2023-01-19T15:41:18.812Z,89.21
2023-01-19T15:43:45.205Z,88.78
2023-01-19T15:46:14.804Z,87.49
2023-01-19T15:48:41.243Z,86.15
2023-01-19T15:51:12.353Z,87.32
2023-01-19T15:53:40.558Z,88.81
2023-01-19T15:56:14.740Z,86.42
2023-01-19T15:58:41.435Z,87.65
2023-01-19T16:01:14.038Z,86.10
2023-01-19T16:03:40.811Z,88.05
2023-01-19T16:06:07.430Z,87.31
2023-01-19T16:08:34.119Z,85.70
2023-01-19T16:11:04.289Z,84.39
2023-01-19T16:13:30.738Z,86.88
2023-01-19T16:16:03.657Z,87.52
2023-01-19T16:18:31.579Z,89.53
2023-01-19T16:20:57.986Z,89.80
2023-01-19T16:23:24.502Z,89.88
2023-01-19T16:25:58.053Z,88.52
2023-01-19T16:28:25.273Z,88.01
2023-01-19T16:30:52.087Z,87.23
2023-01-19T16:33:18.831Z,86.07
2023-01-19T16:35:46.581Z,86.44
2023-01-19T16:38:12.994Z,85.23
2023-01-19T16:40:39.428Z,87.33
2023-01-19T16:43:05.887Z,86.35
2023-01-19T16:45:32.328Z,87.26
2023-01-19T16:47:58.788Z,87.89
2023-01-19T16:50:25.196Z,88.80
2023-01-19T16:52:56.749Z,86.21
2023-01-19T16:55:23.285Z,87.10
2023-01-19T16:57:49.686Z,87.47
2023-01-19T17:00:17.150Z,86.78
2023-01-19T17:02:43.622Z,88.48
2023-01-19T17:05:10.306Z,88.44
2023-01-19T17:07:36.847Z,88.15
2023-01-19T17:10:05.936Z,86.65
2023-01-19T17:12:32.484Z,85.19
2023-01-19T17:14:58.879Z,85.53
2023-01-19T17:17:25.283Z,88.22
2023-01-19T17:19:51.666Z,86.90
2023-01-19T17:22:18.066Z,85.96
2023-01-19T17:24:44.505Z,86.65
2023-01-19T17:27:12.286Z,85.80
2023-01-19T17:29:38.671Z,86.62
2023-01-19T17:32:05.333Z,86.01
2023-01-19T17:34:31.818Z,86.38
2023-01-19T17:36:58.234Z,85.36
2023-01-19T17:39:24.634Z,85.71
2023-01-19T17:41:51.075Z,87.96
2023-01-19T17:44:18.867Z,85.95
2023-01-19T17:46:45.302Z,86.35
2023-01-19T17:49:11.736Z,86.64
2023-01-19T17:51:38.157Z,86.64
2023-01-19T17:54:05.207Z,87.28
2023-01-19T17:56:32.513Z,85.95
2023-01-19T17:58:59.448Z,85.64
2023-01-19T18:01:29.036Z,86.25
2023-01-19T18:03:56.481Z,84.56
2023-01-19T18:06:23.211Z,85.74
2023-01-19T18:08:50.074Z,85.58
2023-01-19T18:11:18.819Z,86.24
2023-01-19T18:13:46.730Z,84.51
2023-01-19T18:16:15.551Z,86.70
2023-01-19T18:18:43.535Z,83.70
2023-01-19T18:21:14.774Z,85.06
2023-01-19T18:23:41.534Z,86.19
2023-01-19T18:26:11.200Z,84.81
2023-01-19T18:28:37.934Z,84.59
2023-01-19T18:31:06.699Z,86.10
2023-01-19T18:33:33.278Z,85.86
2023-01-19T18:36:01.227Z,85.58
2023-01-19T18:38:27.931Z,86.82
2023-01-19T18:41:12.500Z,86.83
2023-01-19T18:43:39.436Z,84.97
2023-01-19T18:46:06.815Z,83.81
2023-01-19T18:48:33.323Z,84.17
2023-01-19T18:51:05.551Z,84.04
2023-01-19T18:53:32.314Z,83.82
2023-01-19T18:58:56.538Z,84.81
2023-01-19T19:01:24.816Z,84.12
2023-01-19T19:03:51.503Z,82.35
2023-01-19T19:06:19.611Z,82.83
2023-01-19T19:08:47.002Z,83.88
2023-01-19T19:11:14.237Z,84.54
2023-01-19T19:13:41.045Z,85.31
2023-01-19T19:16:09.906Z,85.20
2023-01-19T19:18:37.474Z,86.79
2023-01-19T19:21:04.913Z,85.98
2023-01-19T19:23:32.747Z,84.53
2023-01-19T19:26:03.196Z,84.91
2023-01-19T19:28:29.585Z,87.73
2023-01-19T19:31:02.909Z,87.35
2023-01-19T19:33:29.467Z,85.68
2023-01-19T19:35:56.636Z,85.44
2023-01-19T19:38:23.077Z,86.56
2023-01-19T19:40:52.900Z,86.85
2023-01-19T19:43:19.330Z,84.19
2023-01-19T19:45:56.346Z,85.10
2023-01-19T19:48:26.002Z,85.05
2023-01-19T19:50:52.488Z,86.51
2023-01-19T19:53:18.929Z,84.74
2023-01-19T19:55:56.403Z,84.89
2023-01-19T19:58:23.030Z,85.62
2023-01-19T20:00:49.527Z,83.82
2023-01-19T20:03:15.990Z,84.56
2023-01-19T20:05:42.420Z,85.63
2023-01-19T20:08:08.854Z,85.36
2023-01-19T20:10:35.385Z,85.85
2023-01-19T20:13:03.801Z,85.47
2023-01-19T20:15:30.280Z,86.94
2023-01-19T20:17:56.850Z,85.34
2023-01-19T20:20:23.684Z,84.04
2023-01-19T20:22:50.097Z,84.30
2023-01-19T20:25:16.653Z,83.00
2023-01-19T20:27:44.939Z,83.53
2023-01-19T20:30:14.070Z,84.91
2023-01-19T20:32:40.748Z,85.56
2023-01-19T20:35:07.398Z,84.72
2023-01-19T20:37:33.905Z,82.43
2023-01-19T20:40:00.363Z,83.72
2023-01-19T20:42:26.785Z,81.69
2023-01-19T20:44:56.339Z,82.77
2023-01-19T20:47:24.093Z,81.97
2023-01-19T20:49:50.532Z,83.03
2023-01-19T20:52:16.973Z,81.69
2023-01-19T20:54:43.392Z,82.68
2023-01-19T20:57:10.039Z,81.50
2023-01-19T20:59:36.478Z,81.56
2023-01-19T21:02:02.992Z,81.31
2023-01-19T21:04:30.870Z,81.27
2023-01-19T21:06:57.288Z,81.75
2023-01-19T21:09:23.720Z,80.39
2023-01-19T21:11:50.222Z,80.98
2023-01-19T21:14:16.661Z,79.26
2023-01-19T21:16:43.135Z,81.21
2023-01-19T21:19:09.580Z,82.99
2023-01-19T21:21:37.344Z,82.79
2023-01-19T21:24:04.292Z,83.64
2023-01-19T21:26:31.551Z,83.68
2023-01-19T21:28:58.533Z,81.67
2023-01-19T21:31:27.531Z,80.65
2023-01-19T21:33:54.645Z,79.70
2023-01-19T21:36:21.601Z,79.83
2023-01-19T21:38:49.493Z,79.90
2023-01-19T21:41:15.916Z,83.58
2023-01-19T21:43:42.415Z,82.97
2023-01-19T21:46:10.567Z,81.01
2023-01-19T21:48:37.061Z,83.15
2023-01-19T21:51:03.940Z,82.77
2023-01-19T21:53:30.350Z,83.63
2023-01-19T21:55:58.254Z,84.32
2023-01-19T21:58:24.650Z,82.99
2023-01-19T22:00:51.088Z,83.63
2023-01-19T22:03:17.592Z,83.38
2023-01-19T22:05:44.010Z,80.46
2023-01-19T22:08:10.425Z,81.69
2023-01-19T22:10:37.212Z,81.48
2023-01-19T22:13:04.978Z,81.71
2023-01-19T22:15:31.362Z,81.94
2023-01-19T22:17:57.765Z,81.41
2023-01-19T22:20:24.151Z,82.98
2023-01-19T22:22:50.539Z,82.67
2023-01-19T22:25:16.971Z,81.68
2023-01-19T22:27:43.933Z,83.29
2023-01-19T22:30:12.348Z,83.55
2023-01-19T22:32:38.807Z,82.06
2023-01-19T22:35:05.996Z,82.04
2023-01-19T22:37:35.400Z,82.81
2023-01-19T22:40:01.963Z,83.75
2023-01-19T22:42:28.343Z,83.35
2023-01-19T22:44:57.765Z,83.85
2023-01-19T22:47:25.578Z,83.40
2023-01-19T22:49:51.963Z,82.07
2023-01-19T22:52:18.371Z,82.84
2023-01-19T22:54:44.817Z,82.39
2023-01-19T22:57:11.808Z,81.87
2023-01-19T22:59:38.231Z,83.63
2023-01-19T23:02:04.849Z,84.35
2023-01-19T23:04:32.607Z,83.14
2023-01-19T23:06:58.978Z,82.39
2023-01-19T23:09:25.380Z,82.71
2023-01-19T23:11:51.797Z,81.98
2023-01-19T23:14:20.621Z,81.45
2023-01-19T23:16:47.491Z,81.56
2023-01-19T23:19:14.760Z,82.78
2023-01-19T23:21:42.843Z,81.50
2023-01-19T23:24:09.354Z,82.23
2023-01-19T23:26:36.047Z,81.81
2023-01-19T23:29:02.491Z,79.36
2023-01-19T23:31:31.383Z,80.81
2023-01-19T23:34:00.006Z,81.37
2023-01-19T23:36:29.441Z,83.78
2023-01-19T23:38:59.372Z,82.63
2023-01-19T23:41:26.969Z,82.83
2023-01-19T23:43:53.410Z,83.62
2023-01-19T23:46:20.512Z,82.11
2023-01-19T23:48:47.359Z,79.71
2023-01-19T23:51:15.624Z,80.22
2023-01-19T23:53:42.395Z,81.03
2023-01-19T23:56:12.008Z,81.03
2023-01-19T23:58:38.538Z,81.62
